createdAt,value
2023-05-14T00:00:50.998Z,6.60
2023-05-14T00:03:18.774Z,6.43
2023-05-14T00:05:46.599Z,7.00
2023-05-14T00:08:14.324Z,6.37
2023-05-14T00:10:42.055Z,7.20
2023-05-14T00:13:10.019Z,6.60
2023-05-14T00:15:38.133Z,7.63
2023-05-14T00:18:06.350Z,7.00
2023-05-14T00:20:34.109Z,7.33
2023-05-14T00:23:01.841Z,7.63
2023-05-14T00:25:30.532Z,7.20
2023-05-14T00:27:58.334Z,6.83
2023-05-14T00:30:26.149Z,7.70
2023-05-14T00:32:54.091Z,8.30
2023-05-14T00:35:22.346Z,7.90
2023-05-14T00:37:50.249Z,8.37
2023-05-14T00:40:19.319Z,8.20
2023-05-14T00:42:47.003Z,8.17
2023-05-14T00:45:14.699Z,7.53
2023-05-14T00:47:42.681Z,9.07
2023-05-14T00:50:11.880Z,8.03
2023-05-14T00:52:40.230Z,8.90
2023-05-14T00:57:57.826Z,7.70
2023-05-14T01:00:25.892Z,7.73
2023-05-14T01:02:53.888Z,8.03
2023-05-14T01:05:24.601Z,7.83
2023-05-14T01:08:00.315Z,7.50
2023-05-14T01:10:37.513Z,8.33
2023-05-14T01:13:13.351Z,7.90
2023-05-14T01:15:44.301Z,9.47
2023-05-14T01:18:16.591Z,7.73
2023-05-14T01:20:45.692Z,8.87
2023-05-14T01:23:13.944Z,8.40
2023-05-14T01:25:41.715Z,9.30
2023-05-14T01:28:17.142Z,8.00
2023-05-14T01:30:56.568Z,9.20
2023-05-14T01:33:27.247Z,7.90
2023-05-14T01:35:55.873Z,7.77
2023-05-14T01:38:24.006Z,8.00
2023-05-14T01:40:52.486Z,8.20
2023-05-14T01:43:20.853Z,8.50
2023-05-14T01:45:49.350Z,8.97
2023-05-14T01:48:17.097Z,8.60
2023-05-14T01:50:45.043Z,9.10
2023-05-14T01:53:12.861Z,7.93
2023-05-14T01:55:40.599Z,9.57
2023-05-14T01:58:08.292Z,9.47
2023-05-14T02:00:36.092Z,9.00
2023-05-14T02:03:03.836Z,8.07
2023-05-14T02:05:31.660Z,8.77
2023-05-14T02:07:59.385Z,7.40
2023-05-14T02:10:27.134Z,8.50
2023-05-14T02:12:55.869Z,7.80
2023-05-14T02:15:23.695Z,7.77
2023-05-14T02:17:51.465Z,7.80
2023-05-14T02:20:19.527Z,7.87
2023-05-14T02:22:47.606Z,8.63
2023-05-14T02:25:15.857Z,7.63
2023-05-14T02:27:44.190Z,9.07
2023-05-14T02:30:13.525Z,8.87
2023-05-14T02:32:41.400Z,8.60
2023-05-14T02:35:10.423Z,7.40
2023-05-14T02:37:38.118Z,8.33
2023-05-14T02:40:08.485Z,7.73
2023-05-14T02:42:36.243Z,7.73
2023-05-14T02:45:05.970Z,7.70
2023-05-14T02:47:36.097Z,8.93
2023-05-14T02:50:08.117Z,8.43
2023-05-14T02:52:36.299Z,8.37
2023-05-14T02:55:05.569Z,8.10
2023-05-14T02:57:33.276Z,9.07
2023-05-14T03:00:00.988Z,8.00
2023-05-14T03:02:30.484Z,8.13
2023-05-14T03:04:58.804Z,7.93
2023-05-14T03:07:26.664Z,7.80
2023-05-14T03:09:54.449Z,8.10
2023-05-14T03:12:22.184Z,9.30
2023-05-14T03:14:49.897Z,9.60
2023-05-14T03:17:17.801Z,8.80
2023-05-14T03:19:45.521Z,8.60
2023-05-14T03:22:13.251Z,8.73
2023-05-14T03:24:41.033Z,9.67
2023-05-14T03:27:08.811Z,8.50
2023-05-14T03:29:36.532Z,9.30
2023-05-14T03:32:05.979Z,8.87
2023-05-14T03:34:33.889Z,9.93
2023-05-14T03:37:01.614Z,8.67
2023-05-14T03:39:29.384Z,8.03
2023-05-14T03:41:58.301Z,8.70
2023-05-14T03:44:26.321Z,8.27
2023-05-14T03:46:53.987Z,8.70
2023-05-14T03:49:21.720Z,8.73
2023-05-14T03:51:49.420Z,9.33
2023-05-14T03:54:17.152Z,8.60
2023-05-14T03:56:45.245Z,9.07
2023-05-14T03:59:13.247Z,8.87
2023-05-14T04:01:40.892Z,9.77
2023-05-14T04:04:08.681Z,8.77
2023-05-14T04:06:37.033Z,8.47
2023-05-14T04:09:04.860Z,8.30
2023-05-14T04:11:32.912Z,8.47
2023-05-14T04:14:00.636Z,8.07
2023-05-14T04:16:28.437Z,8.17
2023-05-14T04:18:56.313Z,8.20
2023-05-14T04:21:24.040Z,7.77
2023-05-14T04:23:51.737Z,7.93
2023-05-14T04:26:19.401Z,8.43
2023-05-14T04:28:47.144Z,8.77
2023-05-14T04:31:15.073Z,7.57
2023-05-14T04:33:42.796Z,8.63
2023-05-14T04:36:10.522Z,8.37
2023-05-14T04:38:38.152Z,8.60
2023-05-14T04:41:06.487Z,8.80
2023-05-14T04:43:34.148Z,8.70
2023-05-14T04:46:01.939Z,8.80
2023-05-14T04:48:29.853Z,8.33
2023-05-14T04:50:57.706Z,8.50
2023-05-14T04:53:25.458Z,8.60
2023-05-14T04:55:53.485Z,7.63
2023-05-14T04:58:22.867Z,8.37
2023-05-14T05:03:38.528Z,8.37
2023-05-14T05:06:07.708Z,8.73
2023-05-14T05:08:36.305Z,8.70
2023-05-14T05:11:04.903Z,8.33
2023-05-14T05:13:32.637Z,8.67
2023-05-14T05:16:00.677Z,8.53
2023-05-14T05:18:28.518Z,8.57
2023-05-14T05:20:56.337Z,8.77
2023-05-14T05:23:24.100Z,8.83
2023-05-14T05:25:51.804Z,8.70
2023-05-14T05:28:19.626Z,8.60
2023-05-14T05:30:47.330Z,9.37
2023-05-14T05:33:15.123Z,8.40
2023-05-14T05:35:43.823Z,9.57
2023-05-14T05:38:11.591Z,8.70
2023-05-14T05:40:39.345Z,8.80
2023-05-14T05:43:07.072Z,8.63
2023-05-14T05:45:34.791Z,8.93
2023-05-14T05:48:03.030Z,8.13
2023-05-14T05:50:31.686Z,11.23
2023-05-14T05:52:59.614Z,10.17
2023-05-14T05:55:27.762Z,9.20
2023-05-14T05:57:55.684Z,8.90
2023-05-14T06:00:23.926Z,7.57
2023-05-14T06:02:51.846Z,8.73
2023-05-14T06:05:19.694Z,8.30
2023-05-14T06:07:47.448Z,8.03
2023-05-14T06:10:15.122Z,7.90
2023-05-14T06:12:42.796Z,8.50
2023-05-14T06:15:12.479Z,7.43
2023-05-14T06:17:40.882Z,8.20
2023-05-14T06:20:11.075Z,7.90
2023-05-14T06:22:38.798Z,6.80
2023-05-14T06:25:08.808Z,6.43
2023-05-14T06:27:36.591Z,6.23
2023-05-14T06:30:06.406Z,6.13
2023-05-14T06:32:34.151Z,5.40
2023-05-14T06:35:01.849Z,5.10
2023-05-14T06:37:29.637Z,5.37
2023-05-14T06:39:58.045Z,5.23
2023-05-14T06:42:26.003Z,5.60
2023-05-14T06:44:54.282Z,5.83
2023-05-14T06:47:22.222Z,5.37
2023-05-14T06:49:50.148Z,6.00
2023-05-14T06:52:18.689Z,5.50
2023-05-14T06:54:46.398Z,5.70
2023-05-14T06:57:14.120Z,5.43
2023-05-14T06:59:42.033Z,6.47
2023-05-14T07:02:10.091Z,5.10
2023-05-14T07:04:37.975Z,5.53
2023-05-14T07:07:06.159Z,5.37
2023-05-14T07:09:33.964Z,5.53
2023-05-14T07:12:01.709Z,5.10
2023-05-14T07:14:29.424Z,5.17
2023-05-14T07:16:57.704Z,4.97
2023-05-14T07:19:27.901Z,5.13
2023-05-14T07:21:55.665Z,5.20
2023-05-14T07:24:23.936Z,4.27
2023-05-14T07:26:51.758Z,4.80
2023-05-14T07:29:19.457Z,4.00
2023-05-14T07:31:47.256Z,5.40
2023-05-14T07:34:15.186Z,4.83
2023-05-14T07:36:43.156Z,5.10
2023-05-14T07:39:10.947Z,5.10
2023-05-14T07:41:38.796Z,5.37
2023-05-14T07:44:06.549Z,4.50
2023-05-14T07:46:34.269Z,4.77
2023-05-14T07:49:02.022Z,4.30
2023-05-14T07:51:29.769Z,4.03
2023-05-14T07:53:57.441Z,4.23
2023-05-14T07:56:25.401Z,4.17
2023-05-14T07:58:53.174Z,4.50
2023-05-14T08:01:21.134Z,4.37
2023-05-14T08:03:49.012Z,4.20
2023-05-14T08:06:16.926Z,3.63
2023-05-14T08:08:44.683Z,3.70
2023-05-14T08:11:12.532Z,3.60
2023-05-14T08:13:40.857Z,4.30
2023-05-14T08:16:08.899Z,4.20
2023-05-14T08:18:36.684Z,3.70
2023-05-14T08:21:05.460Z,3.63
2023-05-14T08:23:33.367Z,3.63
2023-05-14T08:26:01.084Z,5.50
2023-05-14T08:28:28.860Z,3.80
2023-05-14T08:30:56.656Z,3.67
2023-05-14T08:33:24.518Z,3.73
2023-05-14T08:35:53.719Z,3.87
2023-05-14T08:38:21.507Z,3.63
2023-05-14T08:40:53.933Z,3.90
2023-05-14T08:43:26.394Z,3.90
2023-05-14T08:45:57.591Z,3.73
2023-05-14T08:51:13.587Z,3.37
2023-05-14T08:53:41.333Z,3.63
2023-05-14T08:56:10.312Z,3.20
2023-05-14T08:58:38.103Z,3.17
2023-05-14T09:01:06.068Z,2.70
2023-05-14T09:03:34.582Z,3.13
2023-05-14T09:06:03.686Z,2.70
2023-05-14T09:08:31.528Z,2.63
2023-05-14T09:10:59.308Z,2.80
2023-05-14T09:13:28.324Z,3.20
2023-05-14T09:15:57.157Z,2.77
2023-05-14T09:18:25.629Z,3.40
2023-05-14T09:20:53.816Z,3.27
2023-05-14T09:23:21.964Z,2.87
2023-05-14T09:25:49.793Z,3.30
2023-05-14T09:28:18.441Z,2.67
2023-05-14T09:30:51.421Z,3.00
2023-05-14T09:33:27.676Z,3.37
2023-05-14T09:35:59.502Z,2.60
2023-05-14T09:38:30.120Z,2.90
2023-05-14T09:40:58.276Z,2.40
2023-05-14T09:43:26.464Z,2.50
2023-05-14T09:45:54.174Z,2.50
2023-05-14T09:48:22.407Z,2.30
2023-05-14T09:50:51.409Z,2.80
2023-05-14T09:53:19.503Z,2.70
2023-05-14T09:55:48.629Z,2.87
2023-05-14T09:58:16.497Z,2.77
2023-05-14T10:00:46.596Z,2.83
2023-05-14T10:03:17.184Z,2.63
2023-05-14T10:08:41.833Z,2.67
2023-05-14T10:11:15.357Z,2.90
2023-05-14T10:13:48.347Z,2.93
2023-05-14T10:16:19.913Z,2.57
2023-05-14T10:18:52.051Z,3.20
2023-05-14T10:21:22.088Z,3.00
2023-05-14T10:23:51.073Z,3.13
2023-05-14T10:26:22.388Z,2.70
2023-05-14T10:28:51.768Z,3.23
2023-05-14T10:31:24.025Z,2.70
2023-05-14T10:33:52.140Z,2.90
2023-05-14T10:36:21.919Z,2.90
2023-05-14T10:38:56.556Z,3.23
2023-05-14T10:41:24.587Z,2.83
2023-05-14T10:43:52.383Z,3.20
2023-05-14T10:46:20.557Z,3.20
2023-05-14T10:48:49.488Z,3.10
2023-05-14T10:51:20.121Z,3.07
2023-05-14T10:53:48.533Z,3.50
2023-05-14T10:56:16.528Z,3.17
2023-05-14T10:58:45.638Z,3.40
2023-05-14T11:01:13.980Z,3.40
2023-05-14T11:03:43.660Z,2.97
2023-05-14T11:06:13.603Z,2.63
2023-05-14T11:08:41.996Z,2.90
2023-05-14T11:11:10.527Z,2.83
2023-05-14T11:13:39.016Z,2.70
2023-05-14T11:16:21.555Z,2.70
2023-05-14T11:19:01.123Z,3.13
2023-05-14T11:21:29.105Z,2.73
2023-05-14T11:23:57.543Z,2.80
2023-05-14T11:26:25.659Z,2.50
2023-05-14T11:28:53.598Z,2.73
2023-05-14T11:31:23.437Z,3.00
2023-05-14T11:33:53.750Z,3.63
2023-05-14T11:36:22.125Z,2.70
2023-05-14T11:38:51.590Z,3.07
2023-05-14T11:41:20.971Z,2.70
2023-05-14T11:43:49.119Z,3.27
2023-05-14T11:46:20.977Z,2.67
2023-05-14T11:48:49.451Z,3.33
2023-05-14T11:51:17.317Z,2.70
2023-05-14T11:53:46.559Z,2.90
2023-05-14T11:56:14.449Z,2.50
2023-05-14T11:58:47.162Z,3.30
2023-05-14T12:01:16.619Z,3.07
2023-05-14T12:03:44.745Z,3.37
2023-05-14T12:06:12.593Z,3.07
2023-05-14T12:08:40.543Z,3.37
2023-05-14T12:11:09.487Z,2.60
2023-05-14T12:13:37.217Z,3.13
2023-05-14T12:16:06.294Z,2.90
2023-05-14T12:18:34.733Z,2.70
2023-05-14T12:21:07.549Z,2.87
2023-05-14T12:23:35.286Z,2.93
2023-05-14T12:26:05.349Z,2.80
2023-05-14T12:28:36.073Z,2.93
2023-05-14T12:31:05.925Z,2.97
2023-05-14T12:33:33.838Z,2.67
2023-05-14T12:36:17.571Z,2.80
2023-05-14T12:38:49.814Z,2.80
2023-05-14T12:41:17.719Z,2.83
2023-05-14T12:43:47.345Z,3.00
2023-05-14T12:46:15.704Z,2.77
2023-05-14T12:48:43.649Z,2.80
2023-05-14T12:51:11.548Z,2.80
2023-05-14T12:53:39.369Z,2.80
2023-05-14T12:56:08.299Z,2.50
2023-05-14T12:58:36.472Z,2.47
2023-05-14T13:01:04.408Z,2.50
2023-05-14T13:03:32.374Z,3.00
2023-05-14T13:06:00.984Z,3.33
2023-05-14T13:08:28.998Z,2.80
2023-05-14T13:10:57.216Z,2.90
2023-05-14T13:13:25.571Z,2.63
2023-05-14T13:15:54.899Z,3.30
2023-05-14T13:18:22.671Z,3.00
2023-05-14T13:20:51.165Z,2.80
2023-05-14T13:23:18.932Z,2.53
2023-05-14T13:25:49.758Z,3.03
2023-05-14T13:28:17.821Z,2.87
2023-05-14T13:31:05.022Z,2.53
2023-05-14T13:33:33.957Z,3.13
2023-05-14T13:36:01.867Z,3.03
2023-05-14T13:38:29.986Z,2.70
2023-05-14T13:41:01.560Z,2.57
2023-05-14T13:43:30.564Z,2.70
2023-05-14T13:45:58.955Z,2.63
2023-05-14T13:48:27.114Z,2.80
2023-05-14T13:50:55.167Z,2.90
2023-05-14T13:53:23.958Z,2.40
2023-05-14T13:55:55.609Z,3.00
2023-05-14T13:58:23.838Z,2.67
2023-05-14T14:00:52.000Z,3.07
2023-05-14T14:03:19.941Z,3.27
2023-05-14T14:05:47.811Z,3.37
2023-05-14T14:08:23.506Z,2.57
2023-05-14T14:10:54.398Z,3.33
2023-05-14T14:13:22.389Z,2.67
2023-05-14T14:15:50.423Z,3.07
2023-05-14T14:18:18.324Z,2.80
2023-05-14T14:20:46.284Z,3.03
2023-05-14T14:23:14.103Z,2.50
2023-05-14T14:25:41.806Z,2.77
2023-05-14T14:28:09.636Z,2.70
2023-05-14T14:30:37.425Z,2.73
2023-05-14T14:33:05.278Z,3.00
2023-05-14T14:35:34.627Z,2.90
2023-05-14T14:38:02.360Z,3.03
2023-05-14T14:40:32.213Z,2.70
2023-05-14T14:43:01.235Z,2.60
2023-05-14T14:45:29.055Z,2.80
2023-05-14T14:48:22.727Z,2.70
2023-05-14T14:50:51.420Z,2.87
2023-05-14T14:53:19.196Z,2.97
2023-05-14T14:55:47.373Z,2.47
2023-05-14T14:58:15.313Z,2.87
2023-05-14T15:00:44.919Z,4.47
2023-05-14T15:03:14.183Z,2.57
2023-05-14T15:05:42.128Z,2.70
2023-05-14T15:08:10.134Z,2.53
2023-05-14T15:10:38.446Z,2.83
2023-05-14T15:13:07.566Z,3.40
2023-05-14T15:15:39.244Z,2.90
2023-05-14T15:18:07.211Z,2.90
2023-05-14T15:20:35.056Z,2.77
2023-05-14T15:23:03.679Z,2.63
2023-05-14T15:25:31.573Z,2.80
2023-05-14T15:27:59.498Z,2.63
2023-05-14T15:30:27.359Z,2.70
2023-05-14T15:32:55.270Z,2.80
2023-05-14T15:35:23.593Z,2.83
2023-05-14T15:37:51.473Z,3.00
2023-05-14T15:40:19.590Z,2.60
2023-05-14T15:42:47.420Z,3.40
2023-05-14T15:45:15.201Z,3.93
2023-05-14T15:47:44.397Z,3.13
2023-05-14T15:50:18.837Z,2.83
2023-05-14T15:52:46.739Z,3.37
2023-05-14T15:55:15.080Z,3.30
2023-05-14T15:57:43.254Z,3.60
2023-05-14T16:00:13.661Z,2.97
2023-05-14T16:05:29.740Z,5.67
2023-05-14T16:07:58.029Z,7.33
2023-05-14T16:10:26.042Z,5.40
2023-05-14T16:12:54.105Z,4.40
2023-05-14T16:15:21.989Z,3.30
2023-05-14T16:17:49.842Z,3.23
2023-05-14T16:20:18.125Z,2.33
2023-05-14T16:22:46.154Z,3.40
2023-05-14T16:25:14.136Z,3.00
2023-05-14T16:27:42.049Z,3.53
2023-05-14T16:30:11.993Z,3.60
2023-05-14T16:35:28.842Z,6.20
2023-05-14T16:37:57.161Z,5.63
2023-05-14T16:40:25.111Z,5.10
2023-05-14T16:42:53.115Z,4.00
2023-05-14T16:45:20.856Z,3.30
2023-05-14T16:47:48.616Z,3.97
2023-05-14T16:50:16.573Z,2.93
2023-05-14T16:52:44.361Z,3.40
2023-05-14T16:55:12.132Z,3.07
2023-05-14T16:57:39.993Z,2.80
2023-05-14T17:00:11.156Z,2.73
2023-05-14T17:02:39.190Z,3.13
2023-05-14T17:05:09.210Z,2.73
2023-05-14T17:07:38.379Z,2.80
2023-05-14T17:10:09.003Z,2.83
2023-05-14T17:12:36.926Z,3.00
2023-05-14T17:15:07.001Z,3.03
2023-05-14T17:17:34.788Z,3.40
2023-05-14T17:20:04.981Z,3.00
2023-05-14T17:22:33.168Z,3.57
2023-05-14T17:25:01.185Z,3.30
2023-05-14T17:27:32.466Z,3.30
2023-05-14T17:30:00.323Z,2.90
2023-05-14T17:32:28.894Z,3.33
2023-05-14T17:34:57.513Z,3.73
2023-05-14T17:37:26.263Z,3.40
2023-05-14T17:39:54.074Z,3.63
2023-05-14T17:42:21.940Z,3.00
2023-05-14T17:44:49.805Z,3.47
2023-05-14T17:47:19.971Z,2.83
2023-05-14T17:49:50.329Z,3.67
2023-05-14T17:52:18.542Z,2.87
2023-05-14T17:54:46.525Z,3.43
2023-05-14T17:57:14.351Z,3.03
2023-05-14T17:59:42.281Z,3.23
2023-05-14T18:02:10.071Z,3.40
2023-05-14T18:04:38.017Z,3.50
2023-05-14T18:07:06.129Z,3.03
2023-05-14T18:09:34.092Z,3.10
2023-05-14T18:12:01.929Z,2.87
2023-05-14T18:14:29.744Z,3.13
2023-05-14T18:16:57.719Z,4.57
2023-05-14T18:19:25.594Z,2.67
2023-05-14T18:21:54.714Z,3.97
2023-05-14T18:24:22.603Z,3.33
2023-05-14T18:26:50.676Z,3.67
2023-05-14T18:29:18.947Z,3.70
2023-05-14T18:31:46.926Z,5.13
2023-05-14T18:34:14.819Z,3.53
2023-05-14T18:36:42.934Z,3.80
2023-05-14T18:39:10.852Z,3.90
2023-05-14T18:41:38.701Z,3.87
2023-05-14T18:44:06.534Z,3.20
2023-05-14T18:46:34.479Z,3.57
2023-05-14T18:49:02.535Z,3.30
2023-05-14T18:51:30.564Z,3.30
2023-05-14T18:53:58.936Z,4.43
2023-05-14T18:56:26.841Z,3.30
2023-05-14T18:58:54.680Z,4.43
2023-05-14T19:01:24.862Z,4.87
2023-05-14T19:03:53.742Z,4.60
2023-05-14T19:06:22.117Z,4.07
2023-05-14T19:08:49.955Z,9.77
2023-05-14T19:11:18.000Z,5.37
2023-05-14T19:13:47.247Z,7.50
2023-05-14T19:16:15.014Z,3.57
2023-05-14T19:18:43.063Z,8.90
2023-05-14T19:21:11.116Z,3.90
2023-05-14T19:23:38.787Z,5.10
2023-05-14T19:26:07.123Z,5.13
2023-05-14T19:28:37.206Z,3.53
2023-05-14T19:31:05.260Z,3.30
2023-05-14T19:33:33.464Z,7.67
2023-05-14T19:36:01.165Z,4.80
2023-05-14T19:38:29.047Z,4.37
2023-05-14T19:40:56.852Z,10.10
2023-05-14T19:43:26.152Z,7.33
2023-05-14T19:45:54.262Z,9.40
2023-05-14T19:48:21.952Z,5.73
2023-05-14T19:50:49.605Z,8.73
2023-05-14T19:53:17.555Z,4.20
2023-05-14T19:55:45.352Z,7.37
2023-05-14T19:58:13.433Z,3.60
2023-05-14T20:00:41.348Z,5.60
2023-05-14T20:03:09.282Z,4.17
2023-05-14T20:05:36.987Z,7.50
2023-05-14T20:08:07.496Z,6.90
2023-05-14T20:10:35.436Z,4.27
2023-05-14T20:13:03.200Z,6.40
2023-05-14T20:15:31.192Z,5.17
2023-05-14T20:17:59.056Z,10.67
2023-05-14T20:20:28.346Z,5.00
2023-05-14T20:22:58.304Z,8.90
2023-05-14T20:25:28.197Z,4.00
2023-05-14T20:27:56.212Z,8.17
2023-05-14T20:30:24.465Z,6.87
2023-05-14T20:32:52.744Z,8.33
2023-05-14T20:35:21.186Z,3.57
2023-05-14T20:37:49.168Z,10.13
2023-05-14T20:40:17.616Z,4.63
2023-05-14T20:42:45.408Z,7.20
2023-05-14T20:45:12.942Z,3.87
2023-05-14T20:47:40.895Z,4.47
2023-05-14T20:50:09.636Z,4.10
2023-05-14T20:52:37.448Z,4.17
2023-05-14T20:55:07.818Z,4.20
2023-05-14T20:57:35.554Z,4.67
2023-05-14T21:00:06.448Z,6.00
2023-05-14T21:02:34.111Z,5.83
2023-05-14T21:05:02.296Z,7.67
2023-05-14T21:07:29.929Z,8.00
2023-05-14T21:09:57.450Z,9.47
2023-05-14T21:12:25.384Z,5.87
2023-05-14T21:14:53.190Z,9.40
2023-05-14T21:17:21.030Z,6.80
2023-05-14T21:19:48.996Z,10.20
2023-05-14T21:22:16.772Z,7.47
2023-05-14T21:24:44.311Z,6.97
2023-05-14T21:29:58.099Z,4.93
2023-05-14T21:32:26.164Z,4.63
2023-05-14T21:34:54.170Z,5.10
2023-05-14T21:37:22.232Z,4.43
2023-05-14T21:39:50.221Z,5.13
2023-05-14T21:42:20.218Z,4.90
2023-05-14T21:44:48.042Z,5.03
2023-05-14T21:47:16.268Z,4.70
2023-05-14T21:49:43.999Z,4.63
2023-05-14T21:52:12.100Z,4.77
2023-05-14T21:54:39.994Z,4.30
2023-05-14T21:57:08.105Z,4.60
2023-05-14T21:59:38.142Z,4.90
2023-05-14T22:02:07.614Z,4.80
2023-05-14T22:04:35.946Z,4.63
2023-05-14T22:07:04.385Z,4.47
2023-05-14T22:09:32.197Z,4.80
2023-05-14T22:12:00.089Z,5.50
2023-05-14T22:14:28.135Z,4.40
2023-05-14T22:16:56.228Z,5.20
2023-05-14T22:19:25.142Z,4.90
2023-05-14T22:21:52.997Z,5.20
2023-05-14T22:24:21.358Z,5.10
2023-05-14T22:26:49.128Z,5.27
2023-05-14T22:29:17.001Z,5.33
2023-05-14T22:31:45.195Z,4.83
2023-05-14T22:34:13.123Z,5.43
2023-05-14T22:36:40.906Z,4.60
2023-05-14T22:39:09.300Z,4.70
2023-05-14T22:41:37.832Z,5.30
2023-05-14T22:44:05.546Z,5.20
2023-05-14T22:46:33.509Z,4.97
2023-05-14T22:49:01.314Z,6.27
2023-05-14T22:51:29.266Z,5.30
2023-05-14T22:53:57.192Z,6.10
2023-05-14T22:56:24.993Z,4.90
2023-05-14T22:58:52.749Z,5.30
2023-05-14T23:01:20.593Z,5.10
2023-05-14T23:03:48.696Z,5.60
2023-05-14T23:06:16.434Z,5.57
2023-05-14T23:08:44.299Z,5.47
2023-05-14T23:11:12.062Z,5.60
2023-05-14T23:13:40.180Z,5.30
2023-05-14T23:16:08.149Z,5.90
2023-05-14T23:18:35.990Z,5.63
2023-05-14T23:21:04.039Z,6.83
2023-05-14T23:23:31.825Z,5.93
2023-05-14T23:25:59.526Z,5.70
2023-05-14T23:28:27.551Z,5.90
2023-05-14T23:30:55.232Z,6.10
2023-05-14T23:33:23.020Z,5.40
2023-05-14T23:35:51.454Z,6.27
2023-05-14T23:38:20.328Z,5.60
2023-05-14T23:40:48.070Z,5.63
2023-05-14T23:43:16.170Z,5.50
2023-05-14T23:45:44.050Z,5.80
2023-05-14T23:48:11.890Z,5.20
2023-05-14T23:50:39.616Z,5.10
2023-05-14T23:53:07.567Z,5.47
2023-05-14T23:55:35.583Z,5.80
2023-05-14T23:58:03.341Z,5.70
